createdAt,value
2023-03-12T00:00:49.844Z,517.00
2023-03-12T00:01:49.874Z,519.00
2023-03-12T00:02:49.967Z,511.00
2023-03-12T00:03:50.078Z,516.00
2023-03-12T00:04:50.077Z,526.00
2023-03-12T00:05:50.140Z,513.00
2023-03-12T00:06:50.209Z,508.00
2023-03-12T00:07:50.268Z,516.00
2023-03-12T00:08:50.327Z,511.00
2023-03-12T00:09:50.403Z,515.00
2023-03-12T00:10:50.453Z,520.00
2023-03-12T00:11:50.517Z,510.00
2023-03-12T00:12:50.598Z,518.00
2023-03-12T00:13:50.655Z,522.00
2023-03-12T00:14:50.717Z,520.00
2023-03-12T00:15:50.786Z,509.00
2023-03-12T00:16:50.839Z,516.00
2023-03-12T00:17:50.899Z,514.00
2023-03-12T00:18:50.970Z,513.00
2023-03-12T00:19:51.042Z,516.00
2023-03-12T00:20:51.093Z,513.00
2023-03-12T00:21:51.158Z,513.00
2023-03-12T00:22:51.221Z,511.00
2023-03-12T00:23:51.293Z,511.00
2023-03-12T00:24:51.361Z,509.00
2023-03-12T00:25:51.413Z,508.00
2023-03-12T00:26:51.474Z,513.00
2023-03-12T00:27:51.550Z,517.00
2023-03-12T00:28:51.604Z,515.00
2023-03-12T00:29:51.673Z,520.00
2023-03-12T00:30:51.736Z,516.00
2023-03-12T00:31:51.938Z,515.00
2023-03-12T00:32:51.908Z,515.00
2023-03-12T00:33:51.939Z,516.00
2023-03-12T00:34:52.008Z,519.00
2023-03-12T00:35:52.062Z,516.00
2023-03-12T02:18:58.953Z,511.00
2023-03-12T02:19:59.016Z,505.00
2023-03-12T02:20:59.085Z,513.00
2023-03-12T02:21:59.161Z,507.00
2023-03-12T02:22:59.211Z,512.00
2023-03-12T02:23:59.332Z,513.00
2023-03-12T02:24:59.345Z,508.00
2023-03-12T02:25:59.416Z,518.00
2023-03-12T02:26:59.482Z,507.00
2023-03-12T02:27:59.547Z,514.00
2023-03-12T02:28:59.619Z,508.00
2023-03-12T02:29:59.664Z,506.00
2023-03-12T02:30:59.732Z,513.00
2023-03-12T02:31:59.881Z,505.00
2023-03-12T02:32:59.918Z,516.00
2023-03-12T02:33:59.940Z,506.00
2023-03-12T02:35:00.002Z,503.00
2023-03-12T02:36:00.130Z,507.00
2023-03-12T02:37:00.125Z,517.00
2023-03-12T02:38:00.214Z,510.00
2023-03-12T02:39:00.258Z,510.00
2023-03-12T02:40:00.325Z,507.00
2023-03-12T02:41:00.375Z,516.00
2023-03-12T02:42:00.440Z,515.00
2023-03-12T02:43:00.508Z,508.00
2023-03-12T02:44:00.577Z,515.00
2023-03-12T02:45:00.761Z,505.00
2023-03-12T02:46:00.736Z,507.00
2023-03-12T02:47:00.798Z,501.00
2023-03-12T02:48:00.826Z,516.00
2023-03-12T02:49:00.895Z,513.00
2023-03-12T03:29:03.481Z,505.00
2023-03-12T03:30:03.562Z,505.00
2023-03-12T05:16:10.708Z,507.00
2023-03-12T05:17:10.745Z,507.00
2023-03-12T05:18:10.814Z,510.00
2023-03-12T05:19:10.880Z,509.00
2023-03-12T05:20:10.944Z,505.00
2023-03-12T05:21:11.006Z,503.00
2023-03-12T05:22:11.073Z,510.00
2023-03-12T05:23:11.145Z,508.00
2023-03-12T05:24:11.222Z,509.00
2023-03-12T05:25:11.291Z,507.00
2023-03-12T05:26:11.357Z,507.00
2023-03-12T05:27:11.422Z,507.00
2023-03-12T05:29:11.557Z,516.00
2023-03-12T07:46:20.676Z,508.00
2023-03-12T07:47:24.145Z,511.00
2023-03-12T07:48:20.791Z,514.00
2023-03-12T07:49:20.732Z,514.00
2023-03-12T07:50:20.815Z,523.00
2023-03-12T07:51:20.778Z,509.00
2023-03-12T07:52:20.907Z,520.00
2023-03-12T07:53:20.815Z,518.00
2023-03-12T07:54:20.968Z,513.00
2023-03-12T07:55:20.987Z,515.00
2023-03-12T07:56:20.972Z,517.00
2023-03-12T07:57:20.955Z,522.00
2023-03-12T07:58:20.989Z,515.00
2023-03-12T07:59:20.981Z,516.00
2023-03-12T08:00:20.998Z,518.00
2023-03-12T08:01:21.031Z,517.00
2023-03-12T08:02:21.101Z,518.00
2023-03-12T08:03:21.258Z,521.00
2023-03-12T08:04:21.275Z,517.00
2023-03-12T08:05:21.074Z,518.00
2023-03-12T08:06:21.145Z,515.00
2023-03-12T08:07:21.135Z,514.00
2023-03-12T08:08:21.144Z,510.00
2023-03-12T08:09:21.147Z,514.00
2023-03-12T08:10:21.194Z,515.00
2023-03-12T08:11:21.187Z,517.00
2023-03-12T08:12:21.225Z,518.00
2023-03-12T08:13:21.335Z,513.00
2023-03-12T08:14:21.269Z,515.00
2023-03-12T08:15:21.295Z,517.00
2023-03-12T08:16:21.300Z,516.00
2023-03-12T08:17:21.315Z,521.00
2023-03-12T08:18:21.380Z,522.00
2023-03-12T08:19:21.353Z,516.00
2023-03-12T08:20:21.372Z,525.00
2023-03-12T08:21:21.400Z,517.00
2023-03-12T08:22:21.481Z,508.00
2023-03-12T08:23:21.535Z,516.00
2023-03-12T08:24:21.607Z,513.00
2023-03-12T08:25:21.676Z,514.00
2023-03-12T08:26:21.738Z,522.00
2023-03-12T08:27:21.809Z,518.00
2023-03-12T08:28:21.866Z,521.00
2023-03-12T08:29:21.931Z,522.00
2023-03-12T08:30:21.994Z,529.00
2023-03-12T08:31:22.107Z,517.00
2023-03-12T08:32:22.247Z,515.00
2023-03-12T08:33:22.210Z,518.00
2023-03-12T08:34:22.261Z,518.00
2023-03-12T08:35:22.326Z,522.00
2023-03-12T08:36:22.703Z,514.00
2023-03-12T08:37:22.464Z,514.00
2023-03-12T08:38:22.532Z,524.00
2023-03-12T08:39:22.595Z,520.00
2023-03-12T08:40:22.653Z,517.00
2023-03-12T08:41:22.719Z,518.00
2023-03-12T08:42:22.782Z,525.00
2023-03-12T08:43:23.008Z,522.00
2023-03-12T08:44:22.914Z,521.00
2023-03-12T08:45:22.973Z,521.00
2023-03-12T08:46:23.129Z,520.00
2023-03-12T08:47:23.096Z,518.00
2023-03-12T08:48:23.151Z,519.00
2023-03-12T08:49:23.260Z,520.00
2023-03-12T08:50:23.280Z,520.00
2023-03-12T08:51:23.350Z,518.00
2023-03-12T08:52:23.414Z,519.00
2023-03-12T08:53:23.483Z,527.00
2023-03-12T08:54:23.529Z,519.00
2023-03-12T08:55:23.608Z,522.00
2023-03-12T08:56:23.652Z,520.00
2023-03-12T08:57:23.727Z,515.00
2023-03-12T08:58:23.783Z,519.00
2023-03-12T08:59:23.845Z,516.00
2023-03-12T09:00:23.915Z,520.00
2023-03-12T09:01:23.965Z,521.00
2023-03-12T09:02:24.034Z,524.00
2023-03-12T09:03:24.151Z,523.00
2023-03-12T09:04:24.195Z,524.00
2023-03-12T09:05:24.219Z,524.00
2023-03-12T09:06:24.327Z,525.00
2023-03-12T09:07:24.365Z,520.00
2023-03-12T09:08:24.421Z,524.00
2023-03-12T09:09:24.490Z,520.00
2023-03-12T09:10:24.569Z,521.00
2023-03-12T09:11:24.631Z,528.00
2023-03-12T09:12:24.702Z,519.00
2023-03-12T09:13:27.302Z,530.00
2023-03-12T09:15:01.569Z,529.00
2023-03-12T09:15:25.816Z,531.00
2023-03-12T09:16:24.859Z,532.00
2023-03-12T09:17:24.853Z,534.00
2023-03-12T09:18:24.868Z,532.00
2023-03-12T09:19:24.900Z,529.00
2023-03-12T09:20:24.916Z,532.00
2023-03-12T09:21:24.933Z,525.00
2023-03-12T09:22:24.940Z,532.00
2023-03-12T09:23:24.982Z,525.00
2023-03-12T09:24:24.971Z,523.00
2023-03-12T09:25:24.995Z,525.00
2023-03-12T09:26:25.032Z,530.00
2023-03-12T09:27:25.046Z,523.00
2023-03-12T09:28:25.054Z,532.00
2023-03-12T09:29:25.077Z,524.00
2023-03-12T09:30:25.127Z,525.00
2023-03-12T09:31:25.126Z,531.00
2023-03-12T09:32:25.182Z,527.00
2023-03-12T09:33:25.169Z,521.00
2023-03-12T09:34:25.182Z,523.00
2023-03-12T09:35:25.230Z,521.00
2023-03-12T09:36:25.257Z,523.00
2023-03-12T09:37:25.280Z,527.00
2023-03-12T09:38:25.312Z,531.00
2023-03-12T09:39:25.325Z,525.00
2023-03-12T09:40:25.382Z,531.00
2023-03-12T09:41:25.355Z,531.00
2023-03-12T09:42:25.399Z,519.00
2023-03-12T09:43:25.406Z,522.00
2023-03-12T09:44:25.426Z,524.00
2023-03-12T09:45:25.450Z,525.00
2023-03-12T09:46:25.514Z,530.00
2023-03-12T09:47:25.520Z,533.00
2023-03-12T09:48:25.537Z,527.00
2023-03-12T09:49:25.600Z,525.00
2023-03-12T09:50:25.682Z,526.00
2023-03-12T09:51:25.724Z,526.00
2023-03-12T09:52:25.788Z,527.00
2023-03-12T09:53:25.843Z,539.00
2023-03-12T09:54:25.914Z,527.00
2023-03-12T09:55:25.998Z,523.00
2023-03-12T09:56:26.041Z,531.00
2023-03-12T09:57:26.119Z,531.00
2023-03-12T09:58:26.178Z,529.00
2023-03-12T09:59:26.299Z,532.00
2023-03-12T10:00:26.307Z,530.00
2023-03-12T10:01:26.379Z,523.00
2023-03-12T10:02:26.444Z,526.00
2023-03-12T10:03:26.556Z,527.00
2023-03-12T10:04:26.666Z,524.00
2023-03-12T10:05:26.712Z,522.00
2023-03-12T10:06:26.762Z,529.00
2023-03-12T10:07:26.788Z,530.00
2023-03-12T10:08:28.694Z,524.00
2023-03-12T10:09:26.863Z,532.00
2023-03-12T10:10:26.884Z,532.00
2023-03-12T10:11:26.894Z,522.00
2023-03-12T10:12:26.918Z,525.00
2023-03-12T10:13:26.949Z,525.00
2023-03-12T10:14:26.972Z,530.00
2023-03-12T10:15:26.995Z,528.00
2023-03-12T10:16:27.013Z,532.00
2023-03-12T10:17:27.038Z,527.00
2023-03-12T10:18:27.193Z,517.00
2023-03-12T10:19:27.076Z,526.00
2023-03-12T10:20:27.099Z,521.00
2023-03-12T10:21:27.126Z,527.00
2023-03-12T10:22:27.129Z,528.00
2023-03-12T10:23:27.154Z,535.00
2023-03-12T10:24:27.179Z,523.00
2023-03-12T10:25:27.211Z,526.00
2023-03-12T10:26:27.228Z,524.00
2023-03-12T10:27:27.240Z,522.00
2023-03-12T10:28:27.273Z,526.00
2023-03-12T10:29:27.293Z,532.00
2023-03-12T10:30:27.335Z,516.00
2023-03-12T10:31:27.358Z,522.00
2023-03-12T10:32:27.411Z,519.00
2023-03-12T10:33:27.391Z,525.00
2023-03-12T10:34:27.425Z,526.00
2023-03-12T10:35:28.091Z,520.00
2023-03-12T10:36:27.471Z,523.00
2023-03-12T10:37:27.494Z,522.00
2023-03-12T10:38:27.515Z,528.00
2023-03-12T10:39:27.548Z,523.00
2023-03-12T10:40:27.565Z,521.00
2023-03-12T10:41:27.591Z,526.00
2023-03-12T10:42:27.612Z,520.00
2023-03-12T10:43:27.629Z,521.00
2023-03-12T10:44:27.648Z,531.00
2023-03-12T10:45:27.675Z,528.00
2023-03-12T10:46:27.761Z,524.00
2023-03-12T10:47:27.723Z,528.00
2023-03-12T10:48:27.736Z,524.00
2023-03-12T10:49:27.758Z,524.00
2023-03-12T10:50:27.788Z,522.00
2023-03-12T10:51:27.813Z,529.00
2023-03-12T10:52:27.878Z,527.00
2023-03-12T10:53:29.716Z,522.00
2023-03-12T10:54:27.889Z,528.00
2023-03-12T10:55:27.910Z,518.00
2023-03-12T10:56:27.936Z,532.00
2023-03-12T10:57:27.957Z,518.00
2023-03-12T10:58:27.978Z,514.00
2023-03-12T10:59:27.989Z,523.00
2023-03-12T11:00:28.012Z,522.00
2023-03-12T11:01:28.139Z,528.00
2023-03-12T11:02:28.134Z,530.00
2023-03-12T11:03:28.197Z,529.00
2023-03-12T11:04:30.165Z,523.00
2023-03-12T11:05:28.342Z,525.00
2023-03-12T11:06:28.407Z,525.00
2023-03-12T11:07:28.456Z,524.00
2023-03-12T11:08:28.526Z,526.00
2023-03-12T11:09:28.592Z,516.00
2023-03-12T11:10:28.661Z,530.00
2023-03-12T11:11:28.721Z,525.00
2023-03-12T11:12:28.787Z,520.00
2023-03-12T11:13:28.862Z,523.00
2023-03-12T11:14:28.924Z,529.00
2023-03-12T11:15:29.002Z,537.00
2023-03-12T11:16:31.876Z,522.00
2023-03-12T11:17:29.098Z,533.00
2023-03-12T11:18:29.105Z,530.00
2023-03-12T11:19:29.123Z,529.00
2023-03-12T11:20:29.151Z,527.00
2023-03-12T11:21:29.151Z,525.00
2023-03-12T11:22:29.173Z,532.00
2023-03-12T11:23:29.190Z,525.00
2023-03-12T11:24:29.220Z,532.00
2023-03-12T11:25:29.243Z,530.00
2023-03-12T11:26:29.254Z,528.00
2023-03-12T11:27:29.266Z,530.00
2023-03-12T11:28:29.324Z,520.00
2023-03-12T11:29:29.321Z,525.00
2023-03-12T11:30:29.365Z,538.00
2023-03-12T11:31:29.404Z,526.00
2023-03-12T11:32:29.440Z,530.00
2023-03-12T11:33:29.397Z,533.00
2023-03-12T11:34:29.431Z,530.00
2023-03-12T11:35:29.463Z,529.00
2023-03-12T11:36:29.490Z,526.00
2023-03-12T11:37:29.508Z,528.00
2023-03-12T11:38:29.528Z,526.00
2023-03-12T11:40:29.575Z,529.00
2023-03-12T11:41:29.604Z,520.00
2023-03-12T11:42:29.635Z,538.00
2023-03-12T11:43:42.627Z,540.00
2023-03-12T11:44:30.675Z,540.00
2023-03-12T11:45:29.699Z,538.00
2023-03-12T11:47:29.804Z,534.00
2023-03-12T11:48:29.785Z,537.00
2023-03-12T12:06:30.665Z,535.00
2023-03-12T12:07:30.743Z,532.00
2023-03-12T12:08:30.784Z,531.00
2023-03-12T12:09:30.844Z,527.00
2023-03-12T12:10:30.907Z,529.00
2023-03-12T12:11:30.984Z,533.00
2023-03-12T12:12:31.042Z,536.00
2023-03-12T12:13:31.101Z,532.00
2023-03-12T12:14:31.176Z,541.00
2023-03-12T12:15:31.229Z,530.00
2023-03-12T12:16:31.338Z,537.00
2023-03-12T12:17:31.368Z,524.00
2023-03-12T12:18:31.432Z,530.00
2023-03-12T12:19:31.494Z,528.00
2023-03-12T12:20:31.558Z,536.00
2023-03-12T12:21:31.629Z,540.00
2023-03-12T12:22:31.714Z,540.00
2023-03-12T12:23:31.771Z,534.00
2023-03-12T12:24:31.855Z,542.00
2023-03-12T12:25:31.894Z,538.00
2023-03-12T12:26:31.963Z,536.00
2023-03-12T12:27:32.071Z,534.00
2023-03-12T12:28:32.087Z,541.00
2023-03-12T12:29:33.769Z,539.00
2023-03-12T12:30:32.174Z,545.00
2023-03-12T12:31:32.260Z,542.00
2023-03-12T12:32:32.241Z,545.00
2023-03-12T12:33:32.268Z,540.00
2023-03-12T12:34:32.271Z,534.00
2023-03-12T12:35:32.334Z,541.00
2023-03-12T12:36:32.316Z,545.00
2023-03-12T12:37:32.361Z,541.00
2023-03-12T12:38:32.378Z,539.00
2023-03-12T12:39:32.405Z,550.00
2023-03-12T12:40:32.428Z,537.00
2023-03-12T12:41:32.467Z,547.00
2023-03-12T12:42:32.497Z,542.00
2023-03-12T12:43:32.512Z,549.00
2023-03-12T12:44:32.541Z,544.00
2023-03-12T12:45:32.571Z,537.00
2023-03-12T12:46:32.586Z,544.00
2023-03-12T12:47:32.618Z,545.00
2023-03-12T12:48:32.658Z,549.00
2023-03-12T12:49:32.675Z,543.00
2023-03-12T12:50:32.688Z,538.00
2023-03-12T12:51:32.708Z,534.00
2023-03-12T12:52:32.739Z,546.00
2023-03-12T12:53:32.758Z,545.00
2023-03-12T12:54:32.773Z,546.00
2023-03-12T12:55:32.809Z,540.00
2023-03-12T12:56:32.828Z,548.00
2023-03-12T12:57:32.853Z,551.00
2023-03-12T12:58:32.878Z,546.00
2023-03-12T12:59:32.934Z,545.00
2023-03-12T13:00:32.933Z,551.00
2023-03-12T13:01:33.020Z,547.00
2023-03-12T13:02:32.994Z,539.00
2023-03-12T13:03:33.009Z,547.00
2023-03-12T13:04:33.074Z,542.00
2023-03-12T13:05:33.057Z,540.00
2023-03-12T13:06:33.080Z,551.00
2023-03-12T13:07:33.112Z,543.00
2023-03-12T13:08:33.138Z,550.00
2023-03-12T13:09:33.695Z,548.00
2023-03-12T13:10:33.188Z,550.00
2023-03-12T13:11:33.217Z,536.00
2023-03-12T13:12:33.232Z,540.00
2023-03-12T13:13:33.255Z,540.00
2023-03-12T13:14:33.282Z,546.00
2023-03-12T13:15:33.336Z,541.00
2023-03-12T13:16:33.375Z,542.00
2023-03-12T13:17:33.367Z,548.00
2023-03-12T13:18:33.383Z,544.00
2023-03-12T13:19:33.464Z,547.00
2023-03-12T13:20:33.493Z,543.00
2023-03-12T13:21:33.569Z,541.00
2023-03-12T13:22:33.620Z,546.00
2023-03-12T13:23:33.703Z,546.00
2023-03-12T13:24:33.777Z,541.00
2023-03-12T13:25:33.831Z,551.00
2023-03-12T13:26:33.936Z,547.00
2023-03-12T13:27:33.998Z,552.00
2023-03-12T13:28:34.042Z,545.00
2023-03-12T13:29:34.080Z,544.00
2023-03-12T13:30:34.172Z,545.00
2023-03-12T13:31:34.289Z,549.00
2023-03-12T13:32:34.323Z,546.00
2023-03-12T13:33:34.347Z,551.00
2023-03-12T13:34:34.444Z,547.00
2023-03-12T13:35:34.503Z,553.00
2023-03-12T13:36:34.548Z,550.00
2023-03-12T13:37:34.612Z,547.00
2023-03-12T13:38:34.664Z,543.00
2023-03-12T13:39:34.742Z,546.00
2023-03-12T13:40:34.811Z,547.00
2023-03-12T13:41:34.880Z,544.00
2023-03-12T13:42:34.934Z,547.00
2023-03-12T13:43:35.057Z,549.00
2023-03-12T13:44:35.060Z,545.00
2023-03-12T13:45:35.125Z,541.00
2023-03-12T13:46:35.271Z,553.00
2023-03-12T13:47:35.290Z,551.00
2023-03-12T13:48:35.332Z,552.00
2023-03-12T13:49:35.394Z,551.00
2023-03-12T13:50:35.469Z,551.00
2023-03-12T13:51:35.529Z,550.00
2023-03-12T13:52:35.597Z,553.00
2023-03-12T13:53:35.729Z,551.00
2023-03-12T13:54:35.719Z,559.00
2023-03-12T13:55:35.802Z,559.00
2023-03-12T13:56:35.861Z,557.00
2023-03-12T13:57:38.770Z,545.00
2023-03-12T13:58:35.949Z,550.00
2023-03-12T13:59:35.976Z,558.00
2023-03-12T14:00:35.997Z,560.00
2023-03-12T14:01:36.104Z,550.00
2023-03-12T14:02:36.054Z,550.00
2023-03-12T14:03:37.122Z,558.00
2023-03-12T14:04:36.265Z,558.00
2023-03-12T14:05:36.278Z,552.00
2023-03-12T14:06:36.334Z,552.00
2023-03-12T14:07:36.406Z,549.00
2023-03-12T14:08:36.483Z,554.00
2023-03-12T14:09:38.201Z,557.00
2023-03-12T14:10:36.560Z,555.00
2023-03-12T14:11:36.578Z,554.00
2023-03-12T14:12:36.627Z,547.00
2023-03-12T14:13:36.634Z,551.00
2023-03-12T14:14:36.649Z,564.00
2023-03-12T14:15:38.845Z,555.00
2023-03-12T14:16:36.713Z,555.00
2023-03-12T14:17:36.716Z,557.00
2023-03-12T14:18:36.735Z,552.00
2023-03-12T14:19:36.770Z,558.00
2023-03-12T14:20:36.807Z,556.00
2023-03-12T14:21:38.552Z,553.00
2023-03-12T14:22:36.833Z,554.00
2023-03-12T14:23:36.860Z,553.00
2023-03-12T14:24:36.883Z,556.00
2023-03-12T14:25:36.928Z,556.00
2023-03-12T14:26:36.934Z,556.00
2023-03-12T14:27:36.956Z,557.00
2023-03-12T14:28:36.987Z,564.00
2023-03-12T14:29:37.026Z,568.00
2023-03-12T14:30:37.039Z,557.00
2023-03-12T14:31:37.140Z,562.00
2023-03-12T14:32:37.120Z,557.00
2023-03-12T14:33:37.115Z,555.00
2023-03-12T14:34:37.144Z,555.00
2023-03-12T14:35:37.232Z,558.00
2023-03-12T14:36:37.183Z,553.00
2023-03-12T14:37:37.208Z,566.00
2023-03-12T14:38:37.229Z,557.00
2023-03-12T14:39:37.260Z,558.00
2023-03-12T14:40:37.296Z,559.00
2023-03-12T14:41:37.311Z,558.00
2023-03-12T14:42:37.325Z,561.00
2023-03-12T14:43:37.363Z,556.00
2023-03-12T14:44:37.392Z,556.00
2023-03-12T14:45:37.420Z,554.00
2023-03-12T14:46:37.500Z,564.00
2023-03-12T14:47:37.471Z,553.00
2023-03-12T14:48:37.513Z,555.00
2023-03-12T14:49:37.524Z,564.00
2023-03-12T14:50:37.553Z,566.00
2023-03-12T14:51:37.620Z,571.00
2023-03-12T14:52:37.607Z,566.00
2023-03-12T14:53:37.644Z,559.00
2023-03-12T14:54:37.758Z,563.00
2023-03-12T14:55:37.694Z,560.00
2023-03-12T14:56:37.704Z,563.00
2023-03-12T14:57:37.740Z,556.00
2023-03-12T14:58:37.762Z,557.00
2023-03-12T14:59:37.788Z,559.00
2023-03-12T15:00:37.801Z,557.00
2023-03-12T15:01:37.886Z,562.00
2023-03-12T15:03:37.870Z,561.00
2023-03-12T15:53:40.622Z,576.00
2023-03-12T15:54:40.700Z,568.00
2023-03-12T15:55:40.760Z,574.00
2023-03-12T15:56:40.817Z,576.00
2023-03-12T15:57:40.891Z,579.00
2023-03-12T15:58:40.953Z,581.00
2023-03-12T15:59:41.026Z,581.00
2023-03-12T16:00:41.107Z,578.00
2023-03-12T16:01:41.218Z,580.00
2023-03-12T16:02:41.304Z,581.00
2023-03-12T16:03:41.289Z,574.00
2023-03-12T16:04:41.362Z,579.00
2023-03-12T16:05:41.428Z,585.00
2023-03-12T16:06:41.489Z,573.00
2023-03-12T16:07:41.571Z,578.00
2023-03-12T16:08:41.625Z,579.00
2023-03-12T16:09:41.689Z,576.00
2023-03-12T16:10:41.779Z,578.00
2023-03-12T16:11:41.855Z,582.00
2023-03-12T16:12:41.933Z,591.00
2023-03-12T16:13:42.000Z,580.00
2023-03-12T16:14:42.065Z,590.00
2023-03-12T16:15:42.125Z,582.00
2023-03-12T16:16:42.227Z,583.00
2023-03-12T16:17:42.256Z,579.00
2023-03-12T16:18:42.338Z,588.00
2023-03-12T16:19:42.472Z,583.00
2023-03-12T16:20:42.482Z,580.00
2023-03-12T16:21:42.551Z,583.00
2023-03-12T16:22:42.606Z,587.00
2023-03-12T16:23:42.679Z,580.00
2023-03-12T16:24:42.747Z,582.00
2023-03-12T16:25:42.832Z,589.00
2023-03-12T16:26:42.907Z,586.00
2023-03-12T16:27:42.973Z,580.00
2023-03-12T16:28:43.034Z,582.00
2023-03-12T16:29:43.111Z,589.00
2023-03-12T16:30:43.169Z,583.00
2023-03-12T16:31:43.338Z,592.00
2023-03-12T16:32:43.396Z,581.00
2023-03-12T16:33:43.391Z,580.00
2023-03-12T16:34:43.468Z,584.00
2023-03-12T16:35:43.592Z,592.00
2023-03-12T16:36:43.608Z,583.00
2023-03-12T16:37:43.682Z,587.00
2023-03-12T16:38:43.748Z,581.00
2023-03-12T16:39:43.829Z,591.00
2023-03-12T16:40:43.899Z,591.00
2023-03-12T16:41:43.961Z,595.00
2023-03-12T16:42:44.030Z,593.00
2023-03-12T16:43:44.099Z,587.00
2023-03-12T16:44:46.060Z,582.00
2023-03-12T16:45:44.278Z,585.00
2023-03-12T16:46:44.307Z,596.00
2023-03-12T16:47:44.368Z,590.00
2023-03-12T16:48:44.434Z,586.00
2023-03-12T16:49:44.515Z,596.00
2023-03-12T16:50:44.576Z,588.00
2023-03-12T16:51:44.640Z,587.00
2023-03-12T16:52:44.718Z,584.00
2023-03-12T16:53:46.299Z,592.00
2023-03-12T16:54:44.880Z,582.00
2023-03-12T16:55:44.936Z,585.00
2023-03-12T16:56:45.016Z,588.00
2023-03-12T16:57:45.084Z,592.00
2023-03-12T16:58:45.160Z,584.00
2023-03-12T16:59:45.214Z,591.00
2023-03-12T17:00:45.305Z,598.00
2023-03-12T17:01:45.588Z,592.00
2023-03-12T17:02:45.429Z,600.00
2023-03-12T17:03:45.583Z,591.00
2023-03-12T17:04:45.584Z,590.00
2023-03-12T17:05:45.646Z,591.00
2023-03-12T17:06:45.737Z,593.00
2023-03-12T17:07:45.801Z,591.00
2023-03-12T17:08:45.874Z,582.00
2023-03-12T17:09:45.944Z,583.00
2023-03-12T17:10:46.037Z,595.00
2023-03-12T17:11:46.101Z,584.00
2023-03-12T17:12:48.278Z,593.00
2023-03-12T17:13:46.236Z,586.00
2023-03-12T17:14:46.304Z,586.00
2023-03-12T17:15:46.567Z,589.00
2023-03-12T17:16:46.453Z,585.00
2023-03-12T17:17:46.532Z,593.00
2023-03-12T17:18:46.594Z,592.00
2023-03-12T17:19:46.669Z,595.00
2023-03-12T18:15:50.693Z,587.00
2023-03-12T18:16:50.745Z,582.00
2023-03-12T18:17:50.810Z,589.00
2023-03-12T18:18:52.646Z,590.00
2023-03-12T18:19:50.939Z,592.00
2023-03-12T18:20:51.006Z,582.00
2023-03-12T18:21:51.805Z,587.00
2023-03-12T18:22:51.137Z,593.00
2023-03-12T18:23:51.237Z,590.00
2023-03-12T18:24:51.338Z,600.00
2023-03-12T18:25:51.359Z,596.00
2023-03-12T18:26:51.416Z,583.00
2023-03-12T18:27:51.505Z,593.00
2023-03-12T18:28:51.550Z,589.00
2023-03-12T18:29:51.619Z,592.00
2023-03-12T18:30:51.743Z,593.00
2023-03-12T18:31:51.775Z,595.00
2023-03-12T18:32:51.936Z,596.00
2023-03-12T18:33:51.907Z,592.00
2023-03-12T18:34:51.957Z,595.00
2023-03-12T18:35:54.449Z,592.00
2023-03-12T18:36:52.260Z,591.00
2023-03-12T18:37:52.340Z,594.00
2023-03-12T18:38:52.401Z,590.00
2023-03-12T18:39:52.476Z,596.00
2023-03-12T18:40:52.531Z,588.00
2023-03-12T18:41:52.589Z,589.00
2023-03-12T18:42:52.674Z,593.00
2023-03-12T18:43:52.721Z,591.00
2023-03-12T18:44:52.812Z,595.00
2023-03-12T18:45:52.880Z,587.00
2023-03-12T18:46:53.055Z,596.00
2023-03-12T18:47:53.003Z,593.00
2023-03-12T18:48:53.075Z,587.00
2023-03-12T18:49:53.149Z,599.00
2023-03-12T18:50:53.226Z,593.00
2023-03-12T18:51:53.297Z,586.00
2023-03-12T18:52:53.363Z,585.00
2023-03-12T18:53:53.431Z,592.00
2023-03-12T18:54:53.514Z,592.00
2023-03-12T18:55:53.577Z,586.00
2023-03-12T18:56:53.644Z,602.00
2023-03-12T18:57:53.730Z,583.00
2023-03-12T18:58:53.799Z,597.00
2023-03-12T18:59:53.861Z,585.00
2023-03-12T19:00:53.929Z,593.00
2023-03-12T19:01:54.040Z,592.00
2023-03-12T19:02:54.109Z,595.00
2023-03-12T19:03:54.239Z,591.00
2023-03-12T19:04:56.250Z,584.00
2023-03-12T19:05:54.311Z,590.00
2023-03-12T19:06:54.375Z,589.00
2023-03-12T19:07:54.443Z,591.00
2023-03-12T19:08:54.529Z,587.00
2023-03-12T19:09:54.589Z,595.00
2023-03-12T19:10:54.688Z,598.00
2023-03-12T19:11:54.769Z,594.00
2023-03-12T19:12:54.876Z,592.00
2023-03-12T19:13:54.875Z,593.00
2023-03-12T19:14:54.947Z,590.00
2023-03-12T19:15:55.051Z,585.00
2023-03-12T19:16:55.094Z,595.00
2023-03-12T19:17:55.168Z,590.00
2023-03-12T19:18:55.257Z,596.00
2023-03-12T19:19:55.316Z,581.00
2023-03-12T19:20:55.384Z,598.00
2023-03-12T19:21:55.460Z,587.00
2023-03-12T19:22:55.639Z,591.00
2023-03-12T19:23:55.614Z,591.00
2023-03-12T19:24:55.696Z,587.00
2023-03-12T19:25:55.770Z,587.00
2023-03-12T19:26:55.818Z,587.00
2023-03-12T19:27:55.887Z,593.00
2023-03-12T19:28:55.997Z,592.00
2023-03-12T19:29:56.036Z,591.00
2023-03-12T19:30:56.110Z,584.00
2023-03-12T19:31:56.236Z,589.00
2023-03-12T19:32:56.274Z,599.00
2023-03-12T19:33:56.338Z,590.00
2023-03-12T19:34:56.388Z,588.00
2023-03-12T19:35:56.516Z,587.00
2023-03-12T19:36:56.556Z,599.00
2023-03-12T19:37:56.601Z,591.00
2023-03-12T19:38:56.661Z,591.00
2023-03-12T19:39:56.728Z,588.00
2023-03-12T19:40:56.814Z,594.00
2023-03-12T19:41:56.881Z,592.00
2023-03-12T19:42:56.944Z,594.00
2023-03-12T19:43:57.030Z,594.00
2023-03-12T19:44:57.073Z,597.00
2023-03-12T19:45:57.259Z,593.00
2023-03-12T19:46:57.228Z,589.00
2023-03-12T19:47:57.292Z,590.00
2023-03-12T19:48:57.357Z,586.00
2023-03-12T19:49:57.446Z,590.00
2023-03-12T19:50:57.489Z,591.00
2023-03-12T19:51:57.557Z,591.00
2023-03-12T19:52:57.628Z,591.00
2023-03-12T19:53:57.701Z,597.00
2023-03-12T19:55:04.857Z,597.00
2023-03-12T19:55:58.798Z,597.00
2023-03-12T19:56:57.816Z,597.00
2023-03-12T19:57:57.833Z,597.00
2023-03-12T20:43:00.655Z,596.00
2023-03-12T20:44:00.720Z,593.00
2023-03-12T20:45:01.168Z,593.00
2023-03-12T20:46:00.891Z,595.00
2023-03-12T20:47:00.943Z,595.00
2023-03-12T20:48:01.024Z,589.00
2023-03-12T20:49:01.070Z,585.00
2023-03-12T20:50:01.145Z,584.00
2023-03-12T20:51:01.225Z,594.00
2023-03-12T20:52:01.280Z,588.00
2023-03-12T20:53:01.368Z,594.00
2023-03-12T20:54:01.427Z,578.00
2023-03-12T20:55:01.500Z,594.00
2023-03-12T20:56:01.586Z,593.00
2023-03-12T20:57:01.643Z,594.00
2023-03-12T20:58:01.711Z,596.00
2023-03-12T20:59:01.785Z,594.00
2023-03-12T21:00:02.388Z,588.00
2023-03-12T21:01:01.991Z,583.00
2023-03-12T21:02:02.056Z,590.00
2023-03-12T21:03:02.168Z,595.00
2023-03-12T21:04:02.159Z,581.00
2023-03-12T21:05:02.286Z,585.00
2023-03-12T21:06:02.347Z,597.00
2023-03-12T21:07:02.400Z,594.00
2023-03-12T21:08:02.469Z,590.00
2023-03-12T21:09:02.565Z,592.00
2023-03-12T21:10:02.635Z,580.00
2023-03-12T21:11:02.715Z,590.00
2023-03-12T21:12:02.791Z,585.00
2023-03-12T21:13:02.884Z,576.00
2023-03-12T21:14:02.936Z,585.00
2023-03-12T21:15:03.016Z,589.00
2023-03-12T21:16:03.080Z,590.00
2023-03-12T21:17:03.210Z,588.00
2023-03-12T21:18:03.224Z,596.00
2023-03-12T21:19:03.302Z,584.00
2023-03-12T21:20:03.363Z,584.00
2023-03-12T21:21:03.451Z,583.00
2023-03-12T21:22:03.528Z,585.00
2023-03-12T21:23:03.643Z,585.00
2023-03-12T21:24:03.653Z,579.00
2023-03-12T21:25:03.734Z,586.00
2023-03-12T21:26:03.812Z,587.00
2023-03-12T21:27:03.885Z,588.00
2023-03-12T21:28:03.958Z,583.00
2023-03-12T21:29:04.032Z,591.00
2023-03-12T21:30:04.105Z,588.00
2023-03-12T21:31:04.237Z,586.00
2023-03-12T21:32:04.250Z,591.00
2023-03-12T21:33:04.430Z,582.00
2023-03-12T21:34:04.405Z,587.00
2023-03-12T21:35:04.481Z,584.00
2023-03-12T21:36:04.603Z,587.00
2023-03-12T21:37:04.643Z,583.00
2023-03-12T21:38:04.705Z,583.00
2023-03-12T21:39:04.785Z,590.00
2023-03-12T21:40:04.861Z,588.00
2023-03-12T21:41:04.947Z,584.00